Time;durP1;ratioP1;P1;durP2;ratioP2;P2;SDS_P1;SDS_P2;PMS_P1;PMS_P2;Temp;Humidity;BMP_temperature;BMP_pressure;BME280_temperature;BME280_humidity;BME280_pressure;Samples;Min_cycle;Max_cycle;Signal;HPM_P1;HPM_P2
2021/09/15 00:01:59;;;;;;;14.23;11.43;;;;;;;19.39;92.13;100655.53;5067345;28;20435;-88
2021/09/15 00:04:25;;;;;;;13.38;11.38;;;;;;;19.34;91.92;100655.41;5062700;28;20055;-87
2021/09/15 00:06:50;;;;;;;15.25;11.35;;;;;;;19.30;92.41;100655.00;5049740;28;20041;-87
2021/09/15 00:09:15;;;;;;;14.73;11.80;;;;;;;19.27;92.56;100651.91;5029732;28;20052;-86
2021/09/15 00:11:41;;;;;;;13.90;12.25;;;;;;;19.25;92.96;100652.16;5064527;28;20041;-85
2021/09/15 00:14:06;;;;;;;15.00;11.85;;;;;;;19.23;93.42;100653.41;5030940;28;20504;-84
2021/09/15 00:16:33;;;;;;;16.25;12.02;;;;;;;19.22;93.12;100654.47;5066591;28;20135;-86
2021/09/15 00:18:58;;;;;;;16.48;11.73;;;;;;;19.20;93.16;100651.97;5061564;28;20465;-82
2021/09/15 00:21:23;;;;;;;14.18;11.80;;;;;;;19.21;93.75;100653.63;5045595;28;20049;-86
2021/09/15 00:23:49;;;;;;;15.00;11.90;;;;;;;19.18;93.11;100648.63;5051116;28;20190;-84
2021/09/15 00:26:14;;;;;;;15.98;11.98;;;;;;;19.20;93.66;100646.53;5051609;28;20502;-83
2021/09/15 00:28:42;;;;;;;15.02;12.27;;;;;;;19.22;93.89;100649.00;5069260;28;20048;-85
2021/09/15 00:31:08;;;;;;;15.47;12.40;;;;;;;19.24;93.18;100647.75;5064432;28;20500;-85
2021/09/15 00:33:33;;;;;;;15.68;12.27;;;;;;;19.25;92.82;100640.41;5065620;28;20043;-85
2021/09/15 00:35:59;;;;;;;14.45;12.70;;;;;;;19.26;93.60;100647.53;5063334;28;20053;-85
2021/09/15 00:38:24;;;;;;;15.23;13.20;;;;;;;19.26;93.71;100642.09;5038000;28;20129;-85
2021/09/15 00:40:49;;;;;;;16.42;13.15;;;;;;;19.27;93.67;100635.59;5062581;28;20051;-89
2021/09/15 00:43:15;;;;;;;16.30;13.20;;;;;;;19.28;93.65;100640.00;5047529;28;20451;-84
2021/09/15 00:45:40;;;;;;;18.55;13.50;;;;;;;19.29;94.18;100634.31;5061494;28;20513;-85
2021/09/15 00:48:05;;;;;;;15.00;12.88;;;;;;;19.31;93.93;100637.63;5027555;28;20041;-83
2021/09/15 00:50:31;;;;;;;16.38;13.15;;;;;;;19.30;93.84;100635.97;5045721;28;20415;-87
2021/09/15 00:52:56;;;;;;;16.25;13.05;;;;;;;19.30;94.40;100632.41;5044878;28;20060;-86
2021/09/15 00:55:22;;;;;;;15.68;12.85;;;;;;;19.29;94.05;100625.31;5047888;28;20518;-87
2021/09/15 00:57:48;;;;;;;18.27;13.40;;;;;;;19.29;94.19;100628.03;5069568;28;20044;-88
2021/09/15 01:00:13;;;;;;;17.38;13.95;;;;;;;19.31;94.40;100625.94;5029338;28;20036;-85
2021/09/15 01:02:39;;;;;;;14.95;12.63;;;;;;;19.31;94.55;100617.78;5043389;28;20265;-86
2021/09/15 01:05:05;;;;;;;16.75;13.73;;;;;;;19.31;94.69;100620.50;5046946;28;20071;-84
2021/09/15 01:07:31;;;;;;;18.10;13.90;;;;;;;19.29;94.62;100617.97;5037794;28;20043;-88
2021/09/15 01:09:57;;;;;;;18.35;13.32;;;;;;;19.30;94.60;100616.09;5048223;28;20078;-85
2021/09/15 01:12:29;;;;;;;17.75;14.73;;;;;;;19.28;94.39;100621.78;5041914;28;20048;-85
2021/09/15 01:14:54;;;;;;;15.75;13.85;;;;;;;19.26;95.17;100621.16;5033351;28;20036;-89
2021/09/15 01:17:20;;;;;;;16.85;14.05;;;;;;;19.25;94.85;100613.19;5044324;28;20053;-87
2021/09/15 01:19:45;;;;;;;17.52;14.63;;;;;;;19.25;95.43;100624.09;5054401;28;20047;-83
2021/09/15 01:22:10;;;;;;;21.67;14.98;;;;;;;19.22;95.94;100624.53;5044507;28;20510;-86
2021/09/15 01:24:37;;;;;;;20.00;15.27;;;;;;;19.21;96.48;100622.88;5064954;28;20850;-84
2021/09/15 01:27:03;;;;;;;17.92;14.93;;;;;;;19.16;96.29;100620.81;5042440;28;20231;-87
2021/09/15 01:29:31;;;;;;;20.77;15.88;;;;;;;19.16;96.97;100634.44;5043414;28;20413;-85
2021/09/15 01:32:06;;;;;;;20.52;16.48;;;;;;;19.16;96.60;100629.00;5044866;28;20041;-85
2021/09/15 01:34:37;;;;;;;18.90;16.27;;;;;;;19.12;97.31;100625.06;5042603;28;20503;-84
2021/09/15 01:37:04;;;;;;;21.33;17.48;;;;;;;19.09;97.55;100611.91;5047998;28;20260;-85
2021/09/15 01:39:30;;;;;;;23.55;18.58;;;;;;;19.05;97.81;100625.16;5065597;28;21517;-88
2021/09/15 01:42:00;;;;;;;19.85;17.67;;;;;;;19.01;99.00;100617.66;5045012;28;20061;-85
2021/09/15 01:44:34;;;;;;;21.17;17.88;;;;;;;18.94;99.46;100621.25;5042370;28;20032;-85
2021/09/15 01:47:04;;;;;;;22.77;18.58;;;;;;;18.92;99.48;100628.81;5060859;28;20041;-85
2021/09/15 01:49:31;;;;;;;22.80;19.05;;;;;;;18.91;100.00;100626.31;5038091;28;20136;-85
2021/09/15 01:51:58;;;;;;;23.38;18.63;;;;;;;18.87;100.00;100625.94;5026964;28;20064;-83
2021/09/15 01:54:24;;;;;;;23.98;19.85;;;;;;;18.86;100.00;100620.72;5040494;28;20045;-88
2021/09/15 01:56:50;;;;;;;22.75;19.58;;;;;;;18.83;100.00;100626.59;5040095;28;20431;-88
2021/09/15 01:59:15;;;;;;;26.60;20.40;;;;;;;18.81;100.00;100623.25;5060776;28;20040;-87
2021/09/15 02:01:41;;;;;;;26.67;21.52;;;;;;;18.79;100.00;100625.38;5055306;28;20071;-84
2021/09/15 02:04:06;;;;;;;25.50;20.80;;;;;;;18.74;100.00;100622.50;5042551;28;20575;-86
2021/09/15 02:06:31;;;;;;;24.75;20.52;;;;;;;18.76;100.00;100617.66;5063449;28;20465;-86
2021/09/15 02:08:57;;;;;;;25.40;20.35;;;;;;;18.74;100.00;100608.91;5047647;28;20036;-84
2021/09/15 02:11:22;;;;;;;25.73;21.58;;;;;;;18.71;100.00;100610.16;5030684;28;20051;-88
2021/09/15 02:13:48;;;;;;;26.60;22.55;;;;;;;18.64;100.00;100604.78;5041922;28;20564;-85
2021/09/15 02:16:13;;;;;;;30.35;23.85;;;;;;;18.62;100.00;100606.88;5047081;28;20040;-85
2021/09/15 02:18:39;;;;;;;28.15;22.45;;;;;;;18.59;100.00;100601.91;5041322;28;20704;-88
2021/09/15 02:21:04;;;;;;;29.10;22.83;;;;;;;18.50;100.00;100608.66;5057111;28;20094;-85
2021/09/15 02:23:29;;;;;;;27.55;23.10;;;;;;;18.48;100.00;100597.16;5055376;28;20596;-89
2021/09/15 02:25:55;;;;;;;27.63;23.08;;;;;;;18.42;100.00;100598.06;5027678;28;20123;-86
2021/09/15 02:28:20;;;;;;;29.95;24.75;;;;;;;18.40;100.00;100592.00;5042788;28;20049;-86
2021/09/15 02:30:45;;;;;;;31.25;26.17;;;;;;;18.37;100.00;100596.00;5063213;28;20493;-89
2021/09/15 02:33:12;;;;;;;32.90;25.85;;;;;;;18.31;100.00;100590.63;5051747;28;20048;-88
2021/09/15 02:35:37;;;;;;;32.28;25.83;;;;;;;18.22;100.00;100590.06;5064247;28;20048;-87
2021/09/15 02:38:02;;;;;;;33.55;27.23;;;;;;;18.12;100.00;100585.09;5026698;28;20392;-86
2021/09/15 02:40:28;;;;;;;32.97;26.67;;;;;;;18.13;100.00;100588.66;5050960;28;20060;-88
2021/09/15 02:42:53;;;;;;;35.88;27.58;;;;;;;18.06;100.00;100590.56;5044958;28;20047;-89
2021/09/15 02:45:19;;;;;;;34.90;28.00;;;;;;;18.03;100.00;100598.09;5051645;28;20041;-85
2021/09/15 02:47:44;;;;;;;36.60;28.80;;;;;;;18.04;100.00;100593.53;5041278;28;20175;-85
2021/09/15 02:50:09;;;;;;;34.92;28.75;;;;;;;18.02;100.00;100591.00;5062210;28;20217;-84
2021/09/15 02:52:35;;;;;;;34.65;28.90;;;;;;;18.03;100.00;100599.97;5039661;28;20164;-85
2021/09/15 02:55:00;;;;;;;37.78;30.13;;;;;;;18.00;100.00;100584.94;5032860;28;20056;-85
2021/09/15 02:57:26;;;;;;;33.85;28.35;;;;;;;17.98;100.00;100594.38;5027814;28;20556;-85
2021/09/15 02:59:51;;;;;;;38.78;29.77;;;;;;;17.99;100.00;100590.63;5027324;28;20035;-85
2021/09/15 03:02:16;;;;;;;34.63;28.70;;;;;;;17.99;100.00;100591.44;5050753;28;20079;-86
2021/09/15 03:04:42;;;;;;;40.85;30.10;;;;;;;17.99;100.00;100586.00;5043219;28;20527;-85
2021/09/15 03:07:07;;;;;;;36.22;30.55;;;;;;;17.95;100.00;100583.94;5065740;28;20045;-86
2021/09/15 03:09:33;;;;;;;42.05;31.05;;;;;;;17.97;100.00;100590.00;5038316;28;20047;-83
2021/09/15 03:11:58;;;;;;;40.80;32.30;;;;;;;17.93;100.00;100591.50;5044265;28;20040;-84
2021/09/15 03:14:23;;;;;;;41.13;32.25;;;;;;;17.92;100.00;100589.81;5019579;28;20052;-84
2021/09/15 03:16:49;;;;;;;44.75;32.20;;;;;;;17.91;100.00;100582.72;5052763;28;20040;-86
2021/09/15 03:19:14;;;;;;;40.33;31.80;;;;;;;17.91;100.00;100585.44;5055504;28;20075;-85
2021/09/15 03:21:41;;;;;;;41.97;31.38;;;;;;;17.90;100.00;100584.63;5042726;28;20070;-85
2021/09/15 03:24:07;;;;;;;41.80;30.70;;;;;;;17.87;100.00;100581.50;5013032;28;20093;-85
2021/09/15 03:26:32;;;;;;;40.65;32.30;;;;;;;17.86;100.00;100580.66;5039307;28;20036;-85
2021/09/15 03:28:58;;;;;;;43.35;32.20;;;;;;;17.84;100.00;100576.47;5055610;28;20080;-84
2021/09/15 03:31:23;;;;;;;43.97;31.55;;;;;;;17.84;100.00;100573.78;5018382;28;20091;-84
2021/09/15 03:33:48;;;;;;;42.80;32.13;;;;;;;17.83;100.00;100572.13;5030098;28;20370;-85
2021/09/15 03:36:14;;;;;;;42.42;32.35;;;;;;;17.83;100.00;100567.50;5030518;28;20393;-83
2021/09/15 03:38:40;;;;;;;40.78;30.67;;;;;;;17.81;100.00;100561.50;5039598;28;20507;-86
2021/09/15 03:41:05;;;;;;;39.13;30.63;;;;;;;17.81;100.00;100559.59;5044959;28;20052;-86
2021/09/15 03:43:31;;;;;;;42.13;32.00;;;;;;;17.82;100.00;100565.88;5044120;28;20041;-84
2021/09/15 03:45:56;;;;;;;39.50;30.10;;;;;;;17.83;100.00;100553.13;5043739;28;20040;-85
2021/09/15 03:48:22;;;;;;;43.72;31.42;;;;;;;17.79;100.00;100555.44;5028414;28;20480;-85
2021/09/15 03:50:48;;;;;;;38.50;30.42;;;;;;;17.81;100.00;100556.06;5035339;28;20060;-85
2021/09/15 03:53:14;;;;;;;42.72;32.13;;;;;;;17.80;100.00;100548.94;5060763;28;20037;-86
2021/09/15 03:55:40;;;;;;;41.63;32.20;;;;;;;17.79;100.00;100555.44;5043944;28;20565;-84
2021/09/15 03:58:05;;;;;;;45.42;32.63;;;;;;;17.78;100.00;100554.63;5017170;28;20519;-86
2021/09/15 04:00:33;;;;;;;38.80;31.08;;;;;;;17.78;100.00;100562.75;5059626;28;20048;-86
2021/09/15 04:02:58;;;;;;;39.90;31.48;;;;;;;17.75;100.00;100557.72;5037731;28;20036;-86
2021/09/15 04:05:24;;;;;;;40.20;31.40;;;;;;;17.76;100.00;100559.38;5059357;28;20128;-86
2021/09/15 04:07:49;;;;;;;40.60;31.85;;;;;;;17.76;100.00;100553.13;5036054;28;20116;-87
2021/09/15 04:10:15;;;;;;;39.38;31.90;;;;;;;17.75;100.00;100556.88;5046452;28;20040;-87
2021/09/15 04:12:40;;;;;;;39.45;32.45;;;;;;;17.75;100.00;100559.59;5059216;28;20048;-87
2021/09/15 04:15:06;;;;;;;42.28;32.00;;;;;;;17.74;100.00;100561.47;5027197;28;20044;-87
2021/09/15 04:17:31;;;;;;;43.53;33.22;;;;;;;17.77;100.00;100555.63;5039315;28;20500;-85
2021/09/15 04:19:59;;;;;;;39.80;31.33;;;;;;;17.76;100.00;100561.28;5006047;28;20068;-85
2021/09/15 04:22:24;;;;;;;40.20;31.83;;;;;;;17.76;100.00;100562.09;5013079;28;20041;-88
2021/09/15 04:33:02;;;;;;;46.70;35.78;;;;;;;17.85;100.00;100556.47;5038566;28;20456;-85
2021/09/15 04:35:28;;;;;;;43.22;33.65;;;;;;;17.87;100.00;100555.19;5048358;28;20032;-84
2021/09/15 04:37:54;;;;;;;44.25;34.50;;;;;;;17.88;100.00;100556.03;5053290;28;20139;-85
2021/09/15 04:40:20;;;;;;;43.05;33.53;;;;;;;17.87;100.00;100552.47;5054759;28;20053;-85
2021/09/15 04:42:45;;;;;;;45.08;34.42;;;;;;;17.87;100.00;100554.38;5039977;28;20513;-86
2021/09/15 04:45:11;;;;;;;44.92;34.97;;;;;;;17.84;100.00;100547.50;5063252;28;20296;-85
2021/09/15 04:47:36;;;;;;;46.70;35.47;;;;;;;17.83;100.00;100542.25;5062495;28;20040;-85
2021/09/15 04:50:03;;;;;;;46.92;34.55;;;;;;;17.83;100.00;100542.25;5051336;28;20090;-84
2021/09/15 04:52:28;;;;;;;45.95;35.85;;;;;;;17.82;100.00;100552.28;5046036;28;20140;-85
2021/09/15 04:54:54;;;;;;;47.33;36.88;;;;;;;17.82;100.00;100541.44;5044921;28;20528;-85
2021/09/15 04:57:19;;;;;;;46.50;35.35;;;;;;;17.83;100.00;100547.69;5036228;28;20260;-85
2021/09/15 04:59:45;;;;;;;50.03;37.40;;;;;;;17.84;100.00;100542.06;5047011;28;20127;-86
2021/09/15 05:02:10;;;;;;;51.22;38.15;;;;;;;17.85;100.00;100542.88;5044646;28;20079;-86
2021/09/15 05:04:36;;;;;;;47.97;36.38;;;;;;;17.82;100.00;100533.28;5029117;28;20044;-85
2021/09/15 05:07:01;;;;;;;46.17;36.17;;;;;;;17.81;100.00;100540.59;5058530;28;20120;-85
2021/09/15 05:09:27;;;;;;;46.90;36.65;;;;;;;17.79;100.00;100537.28;5043642;28;20044;-85
2021/09/15 05:11:52;;;;;;;47.40;35.90;;;;;;;17.77;100.00;100541.22;5028540;28;20230;-85
2021/09/15 05:14:17;;;;;;;46.83;36.90;;;;;;;17.75;100.00;100544.16;5031957;28;20078;-85
2021/09/15 05:16:43;;;;;;;50.35;38.17;;;;;;;17.75;100.00;100546.03;5058731;28;20053;-85
2021/09/15 05:19:08;;;;;;;50.65;37.88;;;;;;;17.75;100.00;100549.59;5036343;28;20182;-84
2021/09/15 05:21:34;;;;;;;55.95;39.80;;;;;;;17.77;100.00;100558.31;5021705;28;20556;-85
2021/09/15 05:23:59;;;;;;;51.55;39.85;;;;;;;17.78;100.00;100557.31;5050704;28;20042;-84
2021/09/15 05:26:24;;;;;;;54.58;41.83;;;;;;;17.81;100.00;100553.34;5047931;28;20043;-84
2021/09/15 05:28:50;;;;;;;51.47;40.65;;;;;;;17.84;100.00;100552.06;5035604;28;20068;-84
2021/09/15 05:31:15;;;;;;;54.03;40.38;;;;;;;17.86;100.00;100552.69;5046701;28;20450;-85
2021/09/15 05:33:40;;;;;;;53.10;39.55;;;;;;;17.84;100.00;100544.78;5028354;28;20049;-85
2021/09/15 05:36:06;;;;;;;52.38;39.85;;;;;;;17.83;100.00;100543.09;5045481;28;20047;-84
2021/09/15 05:38:31;;;;;;;53.50;39.95;;;;;;;17.84;100.00;100542.06;5045640;28;20044;-84
2021/09/15 05:40:57;;;;;;;52.20;39.83;;;;;;;17.85;100.00;100534.75;5048579;28;20059;-85
2021/09/15 05:43:22;;;;;;;52.95;39.50;;;;;;;17.85;100.00;100542.88;5048023;28;20540;-85
2021/09/15 05:45:48;;;;;;;49.95;38.40;;;;;;;17.81;100.00;100548.75;5044838;28;20424;-86
2021/09/15 05:48:15;;;;;;;51.85;39.90;;;;;;;17.81;100.00;100540.59;5050713;28;20090;-85
2021/09/15 05:50:41;;;;;;;51.38;38.80;;;;;;;17.78;100.00;100542.91;5049440;28;20046;-89
2021/09/15 05:53:06;;;;;;;51.58;39.83;;;;;;;17.79;100.00;100542.69;5042488;28;20120;-84
2021/09/15 05:55:31;;;;;;;54.47;42.70;;;;;;;17.78;100.00;100557.31;5028193;28;20120;-85
2021/09/15 05:57:57;;;;;;;57.83;43.90;;;;;;;17.80;100.00;100555.22;5044237;28;20061;-89
2021/09/15 06:00:23;;;;;;;55.42;42.83;;;;;;;17.83;100.00;100551.22;5028818;28;20613;-86
2021/09/15 06:02:48;;;;;;;58.45;44.63;;;;;;;17.84;100.00;100549.34;5058242;28;20033;-86
2021/09/15 06:05:14;;;;;;;61.17;45.38;;;;;;;17.88;100.00;100551.41;5032087;28;20050;-87
2021/09/15 06:07:39;;;;;;;63.92;45.63;;;;;;;17.88;100.00;100545.16;5038057;28;20050;-87
2021/09/15 06:10:05;;;;;;;63.53;46.17;;;;;;;17.87;100.00;100549.75;5046721;28;20044;-85
2021/09/15 06:12:30;;;;;;;66.47;47.17;;;;;;;17.87;100.00;100540.78;5031361;28;20240;-85
2021/09/15 06:14:56;;;;;;;63.75;47.08;;;;;;;17.88;100.00;100545.16;5032376;28;20425;-87
2021/09/15 06:17:21;;;;;;;63.05;47.33;;;;;;;17.86;100.00;100545.38;5035127;28;20036;-86
2021/09/15 06:19:46;;;;;;;69.07;48.40;;;;;;;17.87;100.00;100538.06;5052999;28;20336;-88
2021/09/15 06:22:12;;;;;;;65.75;48.75;;;;;;;17.86;100.00;100536.41;5015940;28;20032;-89
2021/09/15 06:24:37;;;;;;;66.95;48.53;;;;;;;17.85;100.00;100537.47;5050507;28;20212;-87
2021/09/15 06:27:03;;;;;;;67.35;47.95;;;;;;;17.86;100.00;100533.69;5051648;28;20048;-86
2021/09/15 06:29:28;;;;;;;71.38;48.60;;;;;;;17.85;100.00;100532.03;5068361;28;20078;-89
2021/09/15 06:31:54;;;;;;;68.85;49.08;;;;;;;17.84;100.00;100528.50;5063826;28;20089;-87
2021/09/15 06:34:19;;;;;;;65.60;49.10;;;;;;;17.84;100.00;100535.78;5029147;28;20152;-86
2021/09/15 06:36:44;;;;;;;71.93;51.17;;;;;;;17.85;100.00;100538.28;5050422;28;20053;-87
2021/09/15 06:39:10;;;;;;;78.38;49.08;;;;;;;17.84;100.00;100530.34;5049984;28;20033;-87
2021/09/15 06:41:35;;;;;;;76.22;49.13;;;;;;;17.84;100.00;100535.78;5039178;28;20044;-86
2021/09/15 06:44:02;;;;;;;68.05;50.03;;;;;;;17.81;100.00;100539.78;5046683;28;20489;-89
2021/09/15 06:46:27;;;;;;;71.68;52.42;;;;;;;17.85;100.00;100541.00;5060179;28;20068;-88
2021/09/15 06:48:53;;;;;;;74.10;53.22;;;;;;;17.88;100.00;100531.59;5044066;28;20049;-86
2021/09/15 06:51:18;;;;;;;75.43;52.72;;;;;;;17.88;100.00;100540.56;5050024;28;20257;-87
2021/09/15 06:53:44;;;;;;;79.38;52.05;;;;;;;17.88;100.00;100537.00;5044853;28;20044;-86
2021/09/15 06:56:10;;;;;;;79.20;52.40;;;;;;;17.89;100.00;100541.38;5014304;28;20087;-85
2021/09/15 06:58:35;;;;;;;78.82;52.63;;;;;;;17.90;100.00;100537.63;5065807;28;20033;-88
2021/09/15 07:01:00;;;;;;;77.13;56.00;;;;;;;17.89;100.00;100530.53;5029956;28;20326;-87
2021/09/15 07:03:26;;;;;;;78.70;55.40;;;;;;;17.92;100.00;100535.50;5030646;28;20040;-86
2021/09/15 07:05:51;;;;;;;83.13;55.97;;;;;;;17.91;100.00;100540.13;5063279;28;20052;-87
2021/09/15 07:08:17;;;;;;;78.45;52.90;;;;;;;17.92;100.00;100540.94;5047843;28;20115;-87
2021/09/15 07:10:43;;;;;;;87.28;56.80;;;;;;;17.93;100.00;100542.63;5030684;28;20037;-87
2021/09/15 07:13:10;;;;;;;83.05;56.45;;;;;;;17.91;100.00;100544.72;5029940;28;20044;-86
2021/09/15 07:15:36;;;;;;;86.25;55.85;;;;;;;17.92;100.00;100541.78;5023297;28;20490;-88
2021/09/15 07:18:02;;;;;;;83.35;56.08;;;;;;;17.93;100.00;100546.16;5055954;28;20091;-88
2021/09/15 07:20:27;;;;;;;88.47;58.35;;;;;;;17.96;100.00;100540.31;5045713;28;20036;-90
2021/09/15 07:22:52;;;;;;;81.18;54.80;;;;;;;17.97;100.00;100544.66;5050245;28;20041;-86
2021/09/15 07:25:18;;;;;;;88.18;59.50;;;;;;;18.00;100.00;100535.25;5030424;28;20028;-86
2021/09/15 07:27:43;;;;;;;90.65;57.25;;;;;;;18.02;100.00;100538.59;5048073;28;20076;-87
2021/09/15 07:30:10;;;;;;;105.32;60.67;;;;;;;18.02;100.00;100535.88;5048388;28;20040;-86
2021/09/15 07:32:35;;;;;;;92.40;58.20;;;;;;;18.07;100.00;100530.63;5027388;28;20117;-87
2021/09/15 07:35:01;;;;;;;94.22;59.70;;;;;;;18.06;100.00;100531.66;5038697;28;20044;-86
2021/09/15 07:37:27;;;;;;;92.97;61.63;;;;;;;18.08;100.00;100532.28;5041924;28;20084;-88
2021/09/15 07:39:55;;;;;;;90.78;60.65;;;;;;;18.08;100.00;100535.00;5029331;28;20601;-87
2021/09/15 07:42:21;;;;;;;89.00;60.38;;;;;;;18.07;100.00;100530.63;5031723;28;20041;-86
2021/09/15 07:44:47;;;;;;;92.38;61.90;;;;;;;18.10;100.00;100538.34;5065441;28;20139;-87
2021/09/15 07:47:16;;;;;;;93.43;62.10;;;;;;;18.07;100.00;100543.34;5043142;28;20484;-88
2021/09/15 07:49:43;;;;;;;97.80;64.30;;;;;;;18.09;100.00;100542.09;5045324;28;20052;-93
2021/09/15 07:52:11;;;;;;;100.43;63.58;;;;;;;18.14;100.00;100538.72;5053099;28;20037;-89
2021/09/15 07:54:36;;;;;;;103.30;66.10;;;;;;;18.16;100.00;100545.59;5058556;28;20044;-88
2021/09/15 07:57:01;;;;;;;100.57;65.28;;;;;;;18.15;100.00;100543.91;5028703;28;20033;-84
2021/09/15 07:59:27;;;;;;;99.35;63.92;;;;;;;18.19;100.00;100553.31;5034092;28;20032;-87
2021/09/15 08:01:52;;;;;;;99.35;65.85;;;;;;;18.20;100.00;100549.53;5026648;28;20280;-86
2021/09/15 08:04:18;;;;;;;103.50;69.88;;;;;;;18.18;100.00;100546.22;5024763;28;20036;-87
2021/09/15 08:06:43;;;;;;;101.95;70.90;;;;;;;18.21;100.00;100545.78;5060669;28;20170;-86
2021/09/15 08:09:08;;;;;;;110.25;70.75;;;;;;;18.23;100.00;100543.66;5035323;28;20504;-87
2021/09/15 08:11:34;;;;;;;103.55;70.40;;;;;;;18.25;100.00;100541.56;5049745;28;20040;-88
2021/09/15 08:14:00;;;;;;;102.50;68.40;;;;;;;18.25;100.00;100546.16;5049122;28;20512;-89
2021/09/15 08:16:25;;;;;;;106.78;70.00;;;;;;;18.27;100.00;100546.78;5038804;28;20413;-87
2021/09/15 08:18:51;;;;;;;96.57;68.93;;;;;;;18.25;100.00;100548.88;5061922;28;20040;-87
2021/09/15 08:21:16;;;;;;;104.25;66.03;;;;;;;18.24;100.00;100544.47;5030709;28;20033;-86
2021/09/15 08:23:42;;;;;;;106.97;65.00;;;;;;;18.22;100.00;100554.75;5070806;28;20044;-88
2021/09/15 08:26:07;;;;;;;100.68;65.22;;;;;;;18.25;100.00;100555.13;5069002;28;20037;-88
2021/09/15 08:28:36;;;;;;;101.80;64.05;;;;;;;18.27;100.00;100554.94;5072936;28;20592;-85
2021/09/15 08:31:03;;;;;;;97.22;62.22;;;;;;;18.22;100.00;100557.47;5040905;28;21534;-87
2021/09/15 08:33:29;;;;;;;94.40;61.75;;;;;;;18.24;100.00;100553.47;5045728;28;20063;-86
2021/09/15 08:35:56;;;;;;;93.00;61.92;;;;;;;18.26;100.00;100550.53;5059268;28;20043;-88
2021/09/15 08:38:21;;;;;;;100.30;64.22;;;;;;;18.26;100.00;100551.34;5040625;28;20041;-84
2021/09/15 08:40:46;;;;;;;100.60;66.18;;;;;;;18.29;100.00;100552.78;5070557;28;20045;-86
2021/09/15 08:43:14;;;;;;;101.32;65.78;;;;;;;18.26;100.00;100550.53;5046939;28;20037;-85
2021/09/15 08:45:40;;;;;;;100.97;63.72;;;;;;;18.27;100.00;100554.94;5031907;28;20043;-86
2021/09/15 08:48:06;;;;;;;105.43;62.80;;;;;;;18.26;100.00;100553.25;5033227;28;20114;-87
2021/09/15 08:50:32;;;;;;;94.85;61.63;;;;;;;18.29;100.00;100551.97;5041927;28;20037;-87
2021/09/15 08:52:58;;;;;;;106.57;64.72;;;;;;;18.30;100.00;100556.34;5050485;28;20036;-88
2021/09/15 08:55:23;;;;;;;98.57;62.17;;;;;;;18.27;100.00;100553.03;5049247;28;20037;-89
2021/09/15 08:57:50;;;;;;;95.25;62.28;;;;;;;18.21;100.00;100548.50;5048052;28;20048;-89
2021/09/15 09:00:15;;;;;;;94.75;62.38;;;;;;;18.24;100.00;100555.34;5030630;28;20225;-90
2021/09/15 09:02:45;;;;;;;95.82;60.35;;;;;;;18.26;100.00;100564.09;5041873;28;20060;-87
2021/09/15 09:05:11;;;;;;;94.90;62.17;;;;;;;18.25;100.00;100563.28;5047925;28;20132;-89
2021/09/15 09:07:37;;;;;;;94.90;61.38;;;;;;;18.25;100.00;100555.13;5066847;28;20036;-89
2021/09/15 09:10:11;;;;;;;90.05;59.53;;;;;;;18.22;100.00;100547.44;5045010;28;20071;-85
2021/09/15 09:12:39;;;;;;;86.97;58.28;;;;;;;18.23;100.00;100543.66;5061748;28;20573;-90
2021/09/15 09:15:26;;;;;;;86.75;58.03;;;;;;;18.25;100.00;100548.88;5030391;28;20043;-88
2021/09/15 09:17:53;;;;;;;84.35;59.22;;;;;;;18.26;100.00;100543.19;5043725;28;20040;-89
2021/09/15 09:20:28;;;;;;;94.22;58.75;;;;;;;18.26;100.00;100535.06;5065477;28;20592;-89
2021/09/15 09:23:14;;;;;;;87.45;55.55;;;;;;;18.24;100.00;100537.19;5026973;28;20044;-88
2021/09/15 09:25:45;;;;;;;91.80;60.85;;;;;;;18.28;100.00;100529.41;5027259;28;20057;-86
2021/09/15 09:28:27;;;;;;;92.15;59.03;;;;;;;18.35;100.00;100523.91;5030886;28;20070;-86
2021/09/15 09:30:55;;;;;;;78.90;54.85;;;;;;;18.37;100.00;100527.25;4997546;28;20560;-90
2021/09/15 09:33:21;;;;;;;72.28;50.72;;;;;;;18.38;100.00;100523.47;5044143;28;20378;-88
2021/09/15 09:35:49;;;;;;;70.68;50.88;;;;;;;18.35;100.00;100532.06;5046725;28;20185;-88
2021/09/15 09:38:22;;;;;;;67.18;48.55;;;;;;;18.39;100.00;100522.44;5013452;28;20097;-88
2021/09/15 09:41:07;;;;;;;64.15;46.15;;;;;;;18.40;100.00;100514.06;5047334;28;20065;-86
2021/09/15 09:43:38;;;;;;;61.80;44.55;;;;;;;18.42;100.00;100520.09;5041490;28;20040;-85
2021/09/15 09:46:05;;;;;;;58.70;41.80;;;;;;;18.42;100.00;100525.53;5051499;28;20036;-89
2021/09/15 09:48:32;;;;;;;59.15;41.33;;;;;;;18.39;100.00;100531.41;5040422;28;20037;-90
2021/09/15 09:50:57;;;;;;;51.20;38.22;;;;;;;18.42;100.00;100535.56;5041563;28;20051;-87
2021/09/15 09:53:23;;;;;;;58.65;41.40;;;;;;;18.45;100.00;100535.13;5043440;28;20132;-87
2021/09/15 09:55:54;;;;;;;57.75;40.22;;;;;;;18.48;100.00;100526.53;5031978;28;20051;-87
2021/09/15 09:58:25;;;;;;;57.08;41.58;;;;;;;18.55;100.00;100535.44;5043423;28;20037;-85
2021/09/15 10:00:56;;;;;;;51.55;39.45;;;;;;;18.54;100.00;100533.78;5062182;28;20044;-90
2021/09/15 10:03:22;;;;;;;55.08;40.97;;;;;;;18.59;100.00;100525.81;5057709;28;20046;-87
2021/09/15 10:05:49;;;;;;;50.88;39.50;;;;;;;18.65;100.00;100522.19;5064259;28;20048;-87
2021/09/15 10:08:18;;;;;;;46.70;36.25;;;;;;;18.68;100.00;100513.59;5048864;28;20563;-87
2021/09/15 10:10:49;;;;;;;45.45;33.15;;;;;;;18.61;100.00;100515.53;5047814;28;20044;-88
2021/09/15 10:13:16;;;;;;;44.58;32.83;;;;;;;18.61;100.00;100512.81;5033903;28;20036;-90
2021/09/15 10:15:49;;;;;;;42.90;33.90;;;;;;;18.68;100.00;100502.72;5048798;28;20041;-87
2021/09/15 10:18:17;;;;;;;45.05;34.83;;;;;;;18.75;100.00;100499.94;5032925;28;20090;-88
2021/09/15 10:20:53;;;;;;;44.60;33.58;;;;;;;18.77;100.00;100491.59;5045200;28;20040;-88
2021/09/15 10:23:41;;;;;;;44.40;35.70;;;;;;;18.83;100.00;100496.13;5056217;28;20340;-89
2021/09/15 10:26:38;;;;;;;39.80;31.27;;;;;;;18.82;100.00;100502.63;5042473;28;20120;-88
2021/09/15 10:29:17;;;;;;;44.00;34.05;;;;;;;18.75;100.00;100508.09;5009008;28;20078;-88
2021/09/15 10:32:09;;;;;;;44.70;34.00;;;;;;;18.85;100.00;100518.47;5058164;28;20048;-88
2021/09/15 10:34:38;;;;;;;38.13;30.63;;;;;;;18.89;100.00;100509.63;5053371;28;20053;-89
2021/09/15 10:37:04;;;;;;;39.22;30.90;;;;;;;18.92;100.00;100517.31;5048624;28;20055;-90
2021/09/15 10:39:30;;;;;;;36.05;27.92;;;;;;;18.96;100.00;100512.28;5040843;28;20032;-87
2021/09/15 10:41:56;;;;;;;36.90;28.85;;;;;;;19.00;100.00;100513.50;5033850;28;20062;-87
2021/09/15 10:44:21;;;;;;;38.03;30.42;;;;;;;19.03;100.00;100507.59;5041543;28;20079;-88
2021/09/15 10:46:47;;;;;;;31.92;25.80;;;;;;;19.09;100.00;100519.47;5060267;28;20067;-87
2021/09/15 10:49:22;;;;;;;30.40;24.10;;;;;;;19.04;100.00;100517.41;5044103;28;20532;-88
2021/09/15 10:52:09;;;;;;;30.13;24.35;;;;;;;19.05;100.00;100518.25;5060440;28;20055;-88
2021/09/15 10:54:47;;;;;;;33.78;27.25;;;;;;;19.16;100.00;100526.50;5039440;28;20079;-88
2021/09/15 10:57:21;;;;;;;33.23;28.00;;;;;;;19.30;100.00;100520.88;5058290;28;20119;-88
2021/09/15 11:00:10;;;;;;;29.17;24.90;;;;;;;19.35;100.00;100515.59;5033902;28;20052;-88
2021/09/15 11:02:38;;;;;;;26.65;22.83;;;;;;;19.46;100.00;100512.09;5026639;28;20127;-88
2021/09/15 11:05:26;;;;;;;28.13;23.25;;;;;;;19.47;100.00;100504.75;5047851;28;20525;-88
2021/09/15 11:07:51;;;;;;;28.92;24.60;;;;;;;19.45;100.00;100505.00;5043410;28;20192;-87
2021/09/15 11:10:32;;;;;;;27.55;22.95;;;;;;;19.54;100.00;100514.50;5057534;28;20040;-87